sensor_id;sensor_type;location;lat;lon;timestamp;P1;durP1;ratioP1;P2;durP2;ratioP2
43986;SDS011;29650;47.378;8.300;2023-05-19T00:00:16;5.30;;;2.33;;
43986;SDS011;29650;47.378;8.300;2023-05-19T00:05:46;3.75;;;1.90;;
43986;SDS011;29650;47.378;8.300;2023-05-19T00:08:14;3.42;;;1.98;;
43986;SDS011;29650;47.378;8.300;2023-05-19T00:11:00;6.50;;;1.95;;
43986;SDS011;29650;47.378;8.300;2023-05-19T00:13:42;2.75;;;1.67;;
43986;SDS011;29650;47.378;8.300;2023-05-19T00:16:24;3.30;;;1.25;;
43986;SDS011;29650;47.378;8.300;2023-05-19T00:19:14;3.90;;;1.58;;
43986;SDS011;29650;47.378;8.300;2023-05-19T00:22:06;4.28;;;1.38;;
43986;SDS011;29650;47.378;8.300;2023-05-19T00:24:37;4.22;;;1.70;;
43986;SDS011;29650;47.378;8.300;2023-05-19T00:27:04;3.72;;;1.90;;
43986;SDS011;29650;47.378;8.300;2023-05-19T00:29:31;6.15;;;2.53;;
43986;SDS011;29650;47.378;8.300;2023-05-19T00:31:58;4.78;;;1.42;;
43986;SDS011;29650;47.378;8.300;2023-05-19T00:34:26;3.03;;;1.45;;
43986;SDS011;29650;47.378;8.300;2023-05-19T00:36:53;3.10;;;1.48;;
43986;SDS011;29650;47.378;8.300;2023-05-19T00:39:40;6.40;;;1.88;;
43986;SDS011;29650;47.378;8.300;2023-05-19T00:42:08;5.57;;;2.92;;
43986;SDS011;29650;47.378;8.300;2023-05-19T00:44:36;5.63;;;1.60;;
43986;SDS011;29650;47.378;8.300;2023-05-19T00:47:06;6.10;;;1.92;;
43986;SDS011;29650;47.378;8.300;2023-05-19T00:49:35;5.68;;;1.70;;
43986;SDS011;29650;47.378;8.300;2023-05-19T00:52:02;7.22;;;1.90;;
43986;SDS011;29650;47.378;8.300;2023-05-19T00:54:37;2.40;;;1.50;;
43986;SDS011;29650;47.378;8.300;2023-05-19T00:57:04;4.07;;;1.45;;
43986;SDS011;29650;47.378;8.300;2023-05-19T00:59:31;4.80;;;1.10;;
43986;SDS011;29650;47.378;8.300;2023-05-19T01:01:58;3.13;;;1.58;;
43986;SDS011;29650;47.378;8.300;2023-05-19T01:04:27;5.63;;;2.00;;
43986;SDS011;29650;47.378;8.300;2023-05-19T01:07:03;2.05;;;1.30;;
43986;SDS011;29650;47.378;8.300;2023-05-19T01:09:37;2.10;;;1.50;;
43986;SDS011;29650;47.378;8.300;2023-05-19T01:12:05;2.85;;;1.60;;
43986;SDS011;29650;47.378;8.300;2023-05-19T01:14:33;2.40;;;1.40;;
43986;SDS011;29650;47.378;8.300;2023-05-19T01:17:16;4.10;;;2.03;;
43986;SDS011;29650;47.378;8.300;2023-05-19T01:20:01;7.38;;;2.20;;
43986;SDS011;29650;47.378;8.300;2023-05-19T01:31:25;4.40;;;1.42;;
43986;SDS011;29650;47.378;8.300;2023-05-19T01:33:53;2.08;;;1.50;;
43986;SDS011;29650;47.378;8.300;2023-05-19T01:36:26;1.60;;;1.30;;
43986;SDS011;29650;47.378;8.300;2023-05-19T01:38:59;3.95;;;1.55;;
43986;SDS011;29650;47.378;8.300;2023-05-19T01:41:27;3.45;;;1.70;;
43986;SDS011;29650;47.378;8.300;2023-05-19T01:43:57;4.43;;;2.95;;
43986;SDS011;29650;47.378;8.300;2023-05-19T01:46:31;4.10;;;1.95;;
43986;SDS011;29650;47.378;8.300;2023-05-19T01:48:59;2.90;;;1.60;;
43986;SDS011;29650;47.378;8.300;2023-05-19T01:51:27;5.07;;;1.70;;
43986;SDS011;29650;47.378;8.300;2023-05-19T01:56:33;4.93;;;1.73;;
43986;SDS011;29650;47.378;8.300;2023-05-19T01:59:11;1.92;;;1.38;;
43986;SDS011;29650;47.378;8.300;2023-05-19T02:02:09;6.10;;;1.42;;
43986;SDS011;29650;47.378;8.300;2023-05-19T02:04:59;3.92;;;1.48;;
43986;SDS011;29650;47.378;8.300;2023-05-19T02:07:36;3.38;;;1.67;;
43986;SDS011;29650;47.378;8.300;2023-05-19T02:10:18;2.95;;;1.50;;
43986;SDS011;29650;47.378;8.300;2023-05-19T02:12:52;3.70;;;1.58;;
43986;SDS011;29650;47.378;8.300;2023-05-19T02:15:26;5.65;;;1.60;;
43986;SDS011;29650;47.378;8.300;2023-05-19T02:18:00;2.33;;;1.48;;
43986;SDS011;29650;47.378;8.300;2023-05-19T02:20:28;3.33;;;1.50;;
43986;SDS011;29650;47.378;8.300;2023-05-19T02:23:09;3.63;;;1.23;;
43986;SDS011;29650;47.378;8.300;2023-05-19T02:25:40;2.88;;;1.45;;
43986;SDS011;29650;47.378;8.300;2023-05-19T02:28:07;4.43;;;1.83;;
43986;SDS011;29650;47.378;8.300;2023-05-19T02:30:34;2.78;;;1.52;;
43986;SDS011;29650;47.378;8.300;2023-05-19T02:33:16;3.33;;;1.70;;
43986;SDS011;29650;47.378;8.300;2023-05-19T02:35:58;4.57;;;1.55;;
43986;SDS011;29650;47.378;8.300;2023-05-19T02:38:28;1.88;;;1.50;;
43986;SDS011;29650;47.378;8.300;2023-05-19T02:40:55;1.88;;;1.23;;
43986;SDS011;29650;47.378;8.300;2023-05-19T02:43:22;4.15;;;1.55;;
43986;SDS011;29650;47.378;8.300;2023-05-19T02:45:49;2.05;;;1.52;;
43986;SDS011;29650;47.378;8.300;2023-05-19T02:48:17;1.85;;;1.30;;
43986;SDS011;29650;47.378;8.300;2023-05-19T02:50:44;4.05;;;1.60;;
43986;SDS011;29650;47.378;8.300;2023-05-19T02:53:11;1.90;;;1.30;;
43986;SDS011;29650;47.378;8.300;2023-05-19T02:55:38;3.53;;;1.40;;
43986;SDS011;29650;47.378;8.300;2023-05-19T02:58:05;5.93;;;1.60;;
43986;SDS011;29650;47.378;8.300;2023-05-19T03:00:32;5.40;;;1.50;;
43986;SDS011;29650;47.378;8.300;2023-05-19T03:02:59;2.70;;;1.73;;
43986;SDS011;29650;47.378;8.300;2023-05-19T03:05:30;2.55;;;1.23;;
43986;SDS011;29650;47.378;8.300;2023-05-19T03:10:25;6.97;;;2.03;;
43986;SDS011;29650;47.378;8.300;2023-05-19T03:12:52;1.35;;;1.25;;
43986;SDS011;29650;47.378;8.300;2023-05-19T03:15:19;6.05;;;1.55;;
43986;SDS011;29650;47.378;8.300;2023-05-19T03:17:47;2.88;;;1.50;;
43986;SDS011;29650;47.378;8.300;2023-05-19T03:20:23;2.33;;;1.60;;
43986;SDS011;29650;47.378;8.300;2023-05-19T03:22:56;6.50;;;1.90;;
43986;SDS011;29650;47.378;8.300;2023-05-19T03:25:28;4.32;;;1.95;;
43986;SDS011;29650;47.378;8.300;2023-05-19T03:27:55;4.05;;;1.55;;
43986;SDS011;29650;47.378;8.300;2023-05-19T03:30:22;3.25;;;1.42;;
43986;SDS011;29650;47.378;8.300;2023-05-19T03:32:49;2.83;;;1.70;;
43986;SDS011;29650;47.378;8.300;2023-05-19T03:35:17;6.85;;;1.50;;
43986;SDS011;29650;47.378;8.300;2023-05-19T03:37:44;2.53;;;1.58;;
43986;SDS011;29650;47.378;8.300;2023-05-19T03:40:18;4.28;;;1.90;;
43986;SDS011;29650;47.378;8.300;2023-05-19T03:42:45;3.25;;;1.45;;
43986;SDS011;29650;47.378;8.300;2023-05-19T03:45:13;3.13;;;1.13;;
43986;SDS011;29650;47.378;8.300;2023-05-19T03:47:40;3.10;;;1.60;;
43986;SDS011;29650;47.378;8.300;2023-05-19T03:50:09;4.15;;;1.83;;
43986;SDS011;29650;47.378;8.300;2023-05-19T03:52:36;3.50;;;1.13;;
43986;SDS011;29650;47.378;8.300;2023-05-19T03:55:06;4.07;;;1.40;;
43986;SDS011;29650;47.378;8.300;2023-05-19T03:57:41;3.40;;;1.45;;
43986;SDS011;29650;47.378;8.300;2023-05-19T04:00:23;6.35;;;1.70;;
43986;SDS011;29650;47.378;8.300;2023-05-19T04:02:50;4.22;;;2.05;;
43986;SDS011;29650;47.378;8.300;2023-05-19T04:05:29;3.50;;;2.05;;
43986;SDS011;29650;47.378;8.300;2023-05-19T04:07:57;5.75;;;1.60;;
43986;SDS011;29650;47.378;8.300;2023-05-19T04:10:39;3.47;;;1.52;;
43986;SDS011;29650;47.378;8.300;2023-05-19T04:13:07;7.97;;;1.40;;
43986;SDS011;29650;47.378;8.300;2023-05-19T04:15:35;6.65;;;1.60;;
43986;SDS011;29650;47.378;8.300;2023-05-19T04:18:10;3.42;;;1.75;;
43986;SDS011;29650;47.378;8.300;2023-05-19T04:20:37;4.68;;;1.30;;
43986;SDS011;29650;47.378;8.300;2023-05-19T04:23:05;3.65;;;1.50;;
43986;SDS011;29650;47.378;8.300;2023-05-19T04:25:45;3.25;;;1.40;;
43986;SDS011;29650;47.378;8.300;2023-05-19T04:28:15;2.45;;;1.60;;
43986;SDS011;29650;47.378;8.300;2023-05-19T04:30:42;2.70;;;1.60;;
43986;SDS011;29650;47.378;8.300;2023-05-19T04:33:10;1.77;;;1.50;;
43986;SDS011;29650;47.378;8.300;2023-05-19T04:35:38;2.70;;;1.63;;
43986;SDS011;29650;47.378;8.300;2023-05-19T04:38:14;6.00;;;1.70;;
43986;SDS011;29650;47.378;8.300;2023-05-19T04:40:44;4.03;;;1.35;;
43986;SDS011;29650;47.378;8.300;2023-05-19T04:43:15;2.47;;;1.65;;
43986;SDS011;29650;47.378;8.300;2023-05-19T04:45:43;2.47;;;1.63;;
43986;SDS011;29650;47.378;8.300;2023-05-19T04:48:11;7.03;;;2.13;;
43986;SDS011;29650;47.378;8.300;2023-05-19T04:50:39;2.33;;;1.58;;
43986;SDS011;29650;47.378;8.300;2023-05-19T04:53:10;4.03;;;2.20;;
43986;SDS011;29650;47.378;8.300;2023-05-19T04:55:49;3.17;;;1.77;;
43986;SDS011;29650;47.378;8.300;2023-05-19T04:58:18;4.88;;;2.03;;
43986;SDS011;29650;47.378;8.300;2023-05-19T05:00:47;4.90;;;1.90;;
43986;SDS011;29650;47.378;8.300;2023-05-19T05:03:15;2.90;;;1.58;;
43986;SDS011;29650;47.378;8.300;2023-05-19T05:05:42;2.13;;;1.65;;
43986;SDS011;29650;47.378;8.300;2023-05-19T05:08:11;5.05;;;1.92;;
43986;SDS011;29650;47.378;8.300;2023-05-19T05:10:40;1.67;;;1.58;;
43986;SDS011;29650;47.378;8.300;2023-05-19T05:13:07;4.25;;;1.70;;
43986;SDS011;29650;47.378;8.300;2023-05-19T05:15:36;4.75;;;2.10;;
43986;SDS011;29650;47.378;8.300;2023-05-19T05:18:12;3.55;;;1.90;;
43986;SDS011;29650;47.378;8.300;2023-05-19T05:20:40;2.90;;;1.40;;
43986;SDS011;29650;47.378;8.300;2023-05-19T05:23:08;5.43;;;1.83;;
43986;SDS011;29650;47.378;8.300;2023-05-19T05:25:45;2.40;;;1.60;;
43986;SDS011;29650;47.378;8.300;2023-05-19T05:28:12;3.47;;;1.60;;
43986;SDS011;29650;47.378;8.300;2023-05-19T05:30:45;4.25;;;1.67;;
43986;SDS011;29650;47.378;8.300;2023-05-19T05:33:13;3.72;;;2.08;;
43986;SDS011;29650;47.378;8.300;2023-05-19T05:35:40;4.03;;;1.80;;
43986;SDS011;29650;47.378;8.300;2023-05-19T05:38:07;6.45;;;1.98;;
43986;SDS011;29650;47.378;8.300;2023-05-19T05:40:41;2.72;;;1.88;;
43986;SDS011;29650;47.378;8.300;2023-05-19T05:43:08;2.40;;;1.90;;
43986;SDS011;29650;47.378;8.300;2023-05-19T05:45:35;2.63;;;1.73;;
43986;SDS011;29650;47.378;8.300;2023-05-19T05:48:04;3.00;;;1.58;;
43986;SDS011;29650;47.378;8.300;2023-05-19T05:50:32;3.75;;;2.00;;
43986;SDS011;29650;47.378;8.300;2023-05-19T05:53:00;4.80;;;1.60;;
43986;SDS011;29650;47.378;8.300;2023-05-19T05:55:42;2.95;;;2.20;;
43986;SDS011;29650;47.378;8.300;2023-05-19T05:58:10;2.97;;;1.85;;
43986;SDS011;29650;47.378;8.300;2023-05-19T06:00:38;5.73;;;2.13;;
43986;SDS011;29650;47.378;8.300;2023-05-19T06:03:24;5.32;;;1.95;;
43986;SDS011;29650;47.378;8.300;2023-05-19T06:05:51;3.58;;;1.95;;
43986;SDS011;29650;47.378;8.300;2023-05-19T06:08:23;2.60;;;1.85;;
43986;SDS011;29650;47.378;8.300;2023-05-19T06:10:50;3.95;;;1.92;;
43986;SDS011;29650;47.378;8.300;2023-05-19T06:13:23;2.88;;;1.88;;
43986;SDS011;29650;47.378;8.300;2023-05-19T06:15:50;3.72;;;2.03;;
43986;SDS011;29650;47.378;8.300;2023-05-19T06:18:18;3.22;;;1.90;;
43986;SDS011;29650;47.378;8.300;2023-05-19T06:21:13;3.67;;;2.28;;
43986;SDS011;29650;47.378;8.300;2023-05-19T06:23:54;2.53;;;1.80;;
43986;SDS011;29650;47.378;8.300;2023-05-19T06:26:30;3.38;;;2.22;;
43986;SDS011;29650;47.378;8.300;2023-05-19T06:29:07;5.15;;;2.08;;
43986;SDS011;29650;47.378;8.300;2023-05-19T06:31:42;5.18;;;2.40;;
43986;SDS011;29650;47.378;8.300;2023-05-19T06:34:09;3.55;;;1.65;;
43986;SDS011;29650;47.378;8.300;2023-05-19T06:36:40;4.57;;;2.28;;
43986;SDS011;29650;47.378;8.300;2023-05-19T06:39:08;7.45;;;2.63;;
43986;SDS011;29650;47.378;8.300;2023-05-19T06:41:35;6.60;;;2.53;;
43986;SDS011;29650;47.378;8.300;2023-05-19T06:44:02;5.53;;;2.22;;
43986;SDS011;29650;47.378;8.300;2023-05-19T06:46:29;4.78;;;1.83;;
43986;SDS011;29650;47.378;8.300;2023-05-19T06:49:05;4.10;;;1.88;;
43986;SDS011;29650;47.378;8.300;2023-05-19T06:54:02;8.05;;;2.58;;
43986;SDS011;29650;47.378;8.300;2023-05-19T06:56:29;3.57;;;2.17;;
43986;SDS011;29650;47.378;8.300;2023-05-19T06:58:56;7.65;;;2.33;;
43986;SDS011;29650;47.378;8.300;2023-05-19T07:01:23;5.60;;;2.22;;
43986;SDS011;29650;47.378;8.300;2023-05-19T07:04:04;4.63;;;2.20;;
43986;SDS011;29650;47.378;8.300;2023-05-19T07:06:36;5.50;;;2.40;;
43986;SDS011;29650;47.378;8.300;2023-05-19T07:09:04;6.90;;;2.65;;
43986;SDS011;29650;47.378;8.300;2023-05-19T07:11:32;9.00;;;3.15;;
43986;SDS011;29650;47.378;8.300;2023-05-19T07:14:13;4.47;;;2.38;;
43986;SDS011;29650;47.378;8.300;2023-05-19T07:16:40;7.15;;;2.28;;
43986;SDS011;29650;47.378;8.300;2023-05-19T07:19:07;4.85;;;2.92;;
43986;SDS011;29650;47.378;8.300;2023-05-19T07:21:34;3.78;;;2.40;;
43986;SDS011;29650;47.378;8.300;2023-05-19T07:24:01;3.95;;;2.30;;
43986;SDS011;29650;47.378;8.300;2023-05-19T07:26:30;3.70;;;2.00;;
43986;SDS011;29650;47.378;8.300;2023-05-19T07:28:57;4.43;;;2.30;;
43986;SDS011;29650;47.378;8.300;2023-05-19T07:31:24;4.50;;;2.65;;
43986;SDS011;29650;47.378;8.300;2023-05-19T07:33:51;3.45;;;2.30;;
43986;SDS011;29650;47.378;8.300;2023-05-19T07:36:26;4.32;;;2.47;;
43986;SDS011;29650;47.378;8.300;2023-05-19T07:38:53;4.03;;;2.42;;
43986;SDS011;29650;47.378;8.300;2023-05-19T07:41:21;3.70;;;2.60;;
43986;SDS011;29650;47.378;8.300;2023-05-19T07:43:49;7.57;;;2.80;;
43986;SDS011;29650;47.378;8.300;2023-05-19T07:46:16;5.50;;;2.70;;
43986;SDS011;29650;47.378;8.300;2023-05-19T07:48:43;6.82;;;2.42;;
43986;SDS011;29650;47.378;8.300;2023-05-19T07:51:15;4.53;;;2.63;;
43986;SDS011;29650;47.378;8.300;2023-05-19T07:53:43;3.28;;;2.13;;
43986;SDS011;29650;47.378;8.300;2023-05-19T07:56:11;4.72;;;2.65;;
43986;SDS011;29650;47.378;8.300;2023-05-19T07:58:38;4.88;;;2.88;;
43986;SDS011;29650;47.378;8.300;2023-05-19T08:01:06;4.53;;;2.78;;
43986;SDS011;29650;47.378;8.300;2023-05-19T08:03:33;4.32;;;2.50;;
43986;SDS011;29650;47.378;8.300;2023-05-19T08:06:00;7.47;;;2.30;;
43986;SDS011;29650;47.378;8.300;2023-05-19T08:08:28;5.05;;;2.40;;
43986;SDS011;29650;47.378;8.300;2023-05-19T08:11:00;7.10;;;2.75;;
43986;SDS011;29650;47.378;8.300;2023-05-19T08:13:27;4.75;;;2.45;;
43986;SDS011;29650;47.378;8.300;2023-05-19T08:15:54;4.25;;;3.13;;
43986;SDS011;29650;47.378;8.300;2023-05-19T08:18:30;5.00;;;2.55;;
43986;SDS011;29650;47.378;8.300;2023-05-19T08:20:58;5.53;;;2.65;;
43986;SDS011;29650;47.378;8.300;2023-05-19T08:23:26;4.57;;;2.47;;
43986;SDS011;29650;47.378;8.300;2023-05-19T08:25:53;5.82;;;2.92;;
43986;SDS011;29650;47.378;8.300;2023-05-19T08:28:21;7.28;;;2.97;;
43986;SDS011;29650;47.378;8.300;2023-05-19T08:30:48;5.63;;;2.83;;
43986;SDS011;29650;47.378;8.300;2023-05-19T08:33:16;5.65;;;2.95;;
43986;SDS011;29650;47.378;8.300;2023-05-19T08:35:47;6.18;;;3.00;;
43986;SDS011;29650;47.378;8.300;2023-05-19T08:38:14;3.53;;;2.40;;
43986;SDS011;29650;47.378;8.300;2023-05-19T08:40:41;5.35;;;2.55;;
43986;SDS011;29650;47.378;8.300;2023-05-19T08:43:10;3.75;;;2.55;;
43986;SDS011;29650;47.378;8.300;2023-05-19T08:45:37;6.03;;;2.97;;
43986;SDS011;29650;47.378;8.300;2023-05-19T08:48:07;4.22;;;2.70;;
43986;SDS011;29650;47.378;8.300;2023-05-19T08:50:37;6.35;;;3.10;;
43986;SDS011;29650;47.378;8.300;2023-05-19T08:53:09;6.95;;;3.08;;
43986;SDS011;29650;47.378;8.300;2023-05-19T08:55:40;7.93;;;3.40;;
43986;SDS011;29650;47.378;8.300;2023-05-19T08:58:18;7.53;;;2.97;;
43986;SDS011;29650;47.378;8.300;2023-05-19T09:03:15;9.48;;;3.08;;
43986;SDS011;29650;47.378;8.300;2023-05-19T09:05:43;8.88;;;2.90;;
43986;SDS011;29650;47.378;8.300;2023-05-19T09:08:12;10.35;;;2.78;;
43986;SDS011;29650;47.378;8.300;2023-05-19T09:10:39;7.57;;;3.08;;
43986;SDS011;29650;47.378;8.300;2023-05-19T09:13:06;4.72;;;2.85;;
43986;SDS011;29650;47.378;8.300;2023-05-19T09:15:52;4.50;;;2.38;;
43986;SDS011;29650;47.378;8.300;2023-05-19T09:18:20;4.93;;;2.72;;
43986;SDS011;29650;47.378;8.300;2023-05-19T09:20:49;8.68;;;2.75;;
43986;SDS011;29650;47.378;8.300;2023-05-19T09:23:17;8.63;;;3.15;;
43986;SDS011;29650;47.378;8.300;2023-05-19T09:25:45;13.60;;;3.58;;
43986;SDS011;29650;47.378;8.300;2023-05-19T09:28:13;4.93;;;3.37;;
43986;SDS011;29650;47.378;8.300;2023-05-19T09:30:40;5.72;;;3.38;;
43986;SDS011;29650;47.378;8.300;2023-05-19T09:33:22;3.45;;;2.72;;
43986;SDS011;29650;47.378;8.300;2023-05-19T09:35:49;4.93;;;2.95;;
43986;SDS011;29650;47.378;8.300;2023-05-19T09:38:18;5.88;;;3.03;;
43986;SDS011;29650;47.378;8.300;2023-05-19T09:40:50;6.55;;;3.15;;
43986;SDS011;29650;47.378;8.300;2023-05-19T09:43:36;6.88;;;3.97;;
43986;SDS011;29650;47.378;8.300;2023-05-19T09:46:03;5.15;;;3.10;;
43986;SDS011;29650;47.378;8.300;2023-05-19T09:48:31;6.60;;;3.70;;
43986;SDS011;29650;47.378;8.300;2023-05-19T09:50:59;6.72;;;3.40;;
43986;SDS011;29650;47.378;8.300;2023-05-19T09:53:28;8.48;;;3.40;;
43986;SDS011;29650;47.378;8.300;2023-05-19T09:55:56;7.18;;;3.63;;
43986;SDS011;29650;47.378;8.300;2023-05-19T09:58:36;5.13;;;3.60;;
43986;SDS011;29650;47.378;8.300;2023-05-19T10:01:07;6.70;;;3.15;;
43986;SDS011;29650;47.378;8.300;2023-05-19T10:03:34;11.40;;;3.58;;
43986;SDS011;29650;47.378;8.300;2023-05-19T10:06:02;5.53;;;3.55;;
43986;SDS011;29650;47.378;8.300;2023-05-19T10:08:32;5.75;;;3.13;;
43986;SDS011;29650;47.378;8.300;2023-05-19T10:11:00;6.28;;;3.15;;
43986;SDS011;29650;47.378;8.300;2023-05-19T10:13:30;6.55;;;3.35;;
43986;SDS011;29650;47.378;8.300;2023-05-19T10:18:33;4.68;;;2.90;;
43986;SDS011;29650;47.378;8.300;2023-05-19T10:21:01;5.38;;;3.58;;
43986;SDS011;29650;47.378;8.300;2023-05-19T10:23:38;6.20;;;3.10;;
43986;SDS011;29650;47.378;8.300;2023-05-19T10:26:05;6.15;;;3.63;;
43986;SDS011;29650;47.378;8.300;2023-05-19T10:28:34;10.13;;;3.88;;
43986;SDS011;29650;47.378;8.300;2023-05-19T10:31:06;8.23;;;3.60;;
43986;SDS011;29650;47.378;8.300;2023-05-19T10:33:40;9.10;;;3.25;;
43986;SDS011;29650;47.378;8.300;2023-05-19T10:36:33;9.82;;;3.50;;
43986;SDS011;29650;47.378;8.300;2023-05-19T10:39:16;3.83;;;2.90;;
43986;SDS011;29650;47.378;8.300;2023-05-19T10:41:49;3.88;;;3.35;;
43986;SDS011;29650;47.378;8.300;2023-05-19T10:44:27;6.00;;;3.53;;
43986;SDS011;29650;47.378;8.300;2023-05-19T10:47:06;9.18;;;3.38;;
43986;SDS011;29650;47.378;8.300;2023-05-19T10:49:35;8.45;;;3.15;;
43986;SDS011;29650;47.378;8.300;2023-05-19T10:52:03;11.32;;;3.47;;
43986;SDS011;29650;47.378;8.300;2023-05-19T10:54:48;7.65;;;3.05;;
43986;SDS011;29650;47.378;8.300;2023-05-19T10:57:15;5.33;;;3.33;;
43986;SDS011;29650;47.378;8.300;2023-05-19T10:59:43;5.60;;;3.33;;
43986;SDS011;29650;47.378;8.300;2023-05-19T11:02:35;6.68;;;3.67;;
43986;SDS011;29650;47.378;8.300;2023-05-19T11:05:08;8.32;;;3.00;;
43986;SDS011;29650;47.378;8.300;2023-05-19T11:07:39;7.07;;;3.20;;
43986;SDS011;29650;47.378;8.300;2023-05-19T11:10:09;9.93;;;3.13;;
43986;SDS011;29650;47.378;8.300;2023-05-19T11:12:39;5.40;;;3.28;;
43986;SDS011;29650;47.378;8.300;2023-05-19T11:15:15;8.48;;;3.03;;
43986;SDS011;29650;47.378;8.300;2023-05-19T11:17:45;5.95;;;3.63;;
43986;SDS011;29650;47.378;8.300;2023-05-19T11:23:05;4.53;;;3.17;;
43986;SDS011;29650;47.378;8.300;2023-05-19T11:25:44;5.18;;;3.53;;
43986;SDS011;29650;47.378;8.300;2023-05-19T11:28:12;7.55;;;3.22;;
43986;SDS011;29650;47.378;8.300;2023-05-19T11:30:41;6.53;;;3.80;;
43986;SDS011;29650;47.378;8.300;2023-05-19T11:33:10;8.23;;;3.37;;
43986;SDS011;29650;47.378;8.300;2023-05-19T11:35:38;7.55;;;3.47;;
43986;SDS011;29650;47.378;8.300;2023-05-19T11:38:06;3.70;;;3.05;;
43986;SDS011;29650;47.378;8.300;2023-05-19T11:40:33;4.38;;;3.00;;
43986;SDS011;29650;47.378;8.300;2023-05-19T11:43:01;3.78;;;3.10;;
43986;SDS011;29650;47.378;8.300;2023-05-19T11:45:29;4.95;;;3.13;;
43986;SDS011;29650;47.378;8.300;2023-05-19T11:47:58;6.10;;;3.50;;
43986;SDS011;29650;47.378;8.300;2023-05-19T11:50:25;4.70;;;3.13;;
43986;SDS011;29650;47.378;8.300;2023-05-19T11:52:52;5.65;;;3.33;;
43986;SDS011;29650;47.378;8.300;2023-05-19T11:55:20;4.13;;;3.35;;
43986;SDS011;29650;47.378;8.300;2023-05-19T11:57:55;11.13;;;3.40;;
43986;SDS011;29650;47.378;8.300;2023-05-19T12:00:25;5.88;;;3.63;;
43986;SDS011;29650;47.378;8.300;2023-05-19T12:02:52;8.35;;;3.25;;
43986;SDS011;29650;47.378;8.300;2023-05-19T12:05:20;9.18;;;3.22;;
43986;SDS011;29650;47.378;8.300;2023-05-19T12:07:47;7.35;;;3.42;;
43986;SDS011;29650;47.378;8.300;2023-05-19T12:10:15;6.57;;;3.25;;
43986;SDS011;29650;47.378;8.300;2023-05-19T12:12:44;8.50;;;3.70;;
43986;SDS011;29650;47.378;8.300;2023-05-19T12:15:11;7.30;;;3.05;;
43986;SDS011;29650;47.378;8.300;2023-05-19T12:17:39;6.05;;;3.10;;
43986;SDS011;29650;47.378;8.300;2023-05-19T12:20:06;5.25;;;3.10;;
43986;SDS011;29650;47.378;8.300;2023-05-19T12:22:35;3.97;;;3.05;;
43986;SDS011;29650;47.378;8.300;2023-05-19T12:25:03;15.70;;;3.53;;
43986;SDS011;29650;47.378;8.300;2023-05-19T12:27:33;6.05;;;2.70;;
43986;SDS011;29650;47.378;8.300;2023-05-19T12:30:02;5.95;;;3.30;;
43986;SDS011;29650;47.378;8.300;2023-05-19T12:32:32;4.53;;;2.80;;
43986;SDS011;29650;47.378;8.300;2023-05-19T12:35:02;9.00;;;3.50;;
43986;SDS011;29650;47.378;8.300;2023-05-19T12:37:30;6.75;;;3.45;;
43986;SDS011;29650;47.378;8.300;2023-05-19T12:39:59;9.23;;;3.50;;
43986;SDS011;29650;47.378;8.300;2023-05-19T12:42:28;7.75;;;3.15;;
43986;SDS011;29650;47.378;8.300;2023-05-19T12:44:56;6.38;;;3.42;;
43986;SDS011;29650;47.378;8.300;2023-05-19T12:47:28;6.00;;;3.40;;
43986;SDS011;29650;47.378;8.300;2023-05-19T12:50:00;7.72;;;3.47;;
43986;SDS011;29650;47.378;8.300;2023-05-19T12:52:30;6.25;;;3.22;;
43986;SDS011;29650;47.378;8.300;2023-05-19T12:54:59;6.40;;;3.60;;
43986;SDS011;29650;47.378;8.300;2023-05-19T12:57:29;6.70;;;3.55;;
43986;SDS011;29650;47.378;8.300;2023-05-19T12:59:59;6.75;;;3.63;;
43986;SDS011;29650;47.378;8.300;2023-05-19T13:02:32;6.65;;;3.28;;
43986;SDS011;29650;47.378;8.300;2023-05-19T13:04:59;6.70;;;3.25;;
43986;SDS011;29650;47.378;8.300;2023-05-19T13:07:27;9.98;;;3.70;;
43986;SDS011;29650;47.378;8.300;2023-05-19T13:09:54;5.55;;;3.33;;
43986;SDS011;29650;47.378;8.300;2023-05-19T13:12:21;8.10;;;3.40;;
43986;SDS011;29650;47.378;8.300;2023-05-19T13:14:48;8.18;;;3.58;;
43986;SDS011;29650;47.378;8.300;2023-05-19T13:17:15;5.22;;;3.20;;
43986;SDS011;29650;47.378;8.300;2023-05-19T13:19:43;7.63;;;3.30;;
43986;SDS011;29650;47.378;8.300;2023-05-19T13:22:10;5.15;;;3.22;;
43986;SDS011;29650;47.378;8.300;2023-05-19T13:24:38;3.88;;;2.72;;
43986;SDS011;29650;47.378;8.300;2023-05-19T13:27:05;5.88;;;3.13;;
43986;SDS011;29650;47.378;8.300;2023-05-19T13:29:32;4.82;;;3.30;;
43986;SDS011;29650;47.378;8.300;2023-05-19T13:31:59;7.93;;;3.45;;
43986;SDS011;29650;47.378;8.300;2023-05-19T13:34:26;4.25;;;3.17;;
43986;SDS011;29650;47.378;8.300;2023-05-19T13:36:53;5.13;;;3.65;;
43986;SDS011;29650;47.378;8.300;2023-05-19T13:39:20;6.50;;;3.22;;
43986;SDS011;29650;47.378;8.300;2023-05-19T13:41:49;6.25;;;3.33;;
43986;SDS011;29650;47.378;8.300;2023-05-19T13:44:15;6.53;;;3.25;;
43986;SDS011;29650;47.378;8.300;2023-05-19T13:46:42;5.47;;;3.35;;
43986;SDS011;29650;47.378;8.300;2023-05-19T13:49:09;3.33;;;2.90;;
43986;SDS011;29650;47.378;8.300;2023-05-19T13:51:38;6.38;;;3.47;;
43986;SDS011;29650;47.378;8.300;2023-05-19T13:54:07;5.20;;;2.90;;
43986;SDS011;29650;47.378;8.300;2023-05-19T13:56:34;6.80;;;3.05;;
43986;SDS011;29650;47.378;8.300;2023-05-19T13:59:02;7.35;;;3.40;;
43986;SDS011;29650;47.378;8.300;2023-05-19T14:01:29;7.88;;;3.38;;
43986;SDS011;29650;47.378;8.300;2023-05-19T14:03:56;13.02;;;3.22;;
43986;SDS011;29650;47.378;8.300;2023-05-19T14:06:23;5.20;;;3.30;;
43986;SDS011;29650;47.378;8.300;2023-05-19T14:08:51;7.15;;;3.17;;
43986;SDS011;29650;47.378;8.300;2023-05-19T14:11:18;7.22;;;3.63;;
43986;SDS011;29650;47.378;8.300;2023-05-19T14:13:46;9.07;;;3.33;;
43986;SDS011;29650;47.378;8.300;2023-05-19T14:16:15;6.22;;;3.40;;
43986;SDS011;29650;47.378;8.300;2023-05-19T14:18:42;7.43;;;3.43;;
43986;SDS011;29650;47.378;8.300;2023-05-19T14:21:10;6.47;;;3.65;;
43986;SDS011;29650;47.378;8.300;2023-05-19T14:23:36;5.32;;;3.10;;
43986;SDS011;29650;47.378;8.300;2023-05-19T14:26:03;4.70;;;2.97;;
43986;SDS011;29650;47.378;8.300;2023-05-19T14:28:30;5.20;;;3.28;;
43986;SDS011;29650;47.378;8.300;2023-05-19T14:30:57;4.28;;;2.72;;
43986;SDS011;29650;47.378;8.300;2023-05-19T14:33:26;5.22;;;2.67;;
43986;SDS011;29650;47.378;8.300;2023-05-19T14:35:53;10.13;;;3.47;;
43986;SDS011;29650;47.378;8.300;2023-05-19T14:38:23;6.88;;;3.22;;
43986;SDS011;29650;47.378;8.300;2023-05-19T14:40:50;8.15;;;3.00;;
43986;SDS011;29650;47.378;8.300;2023-05-19T14:43:17;7.68;;;3.03;;
43986;SDS011;29650;47.378;8.300;2023-05-19T14:45:44;7.25;;;3.05;;
43986;SDS011;29650;47.378;8.300;2023-05-19T14:48:11;5.60;;;2.80;;
43986;SDS011;29650;47.378;8.300;2023-05-19T14:50:39;6.18;;;2.75;;
43986;SDS011;29650;47.378;8.300;2023-05-19T14:53:06;4.10;;;2.78;;
43986;SDS011;29650;47.378;8.300;2023-05-19T14:55:33;3.92;;;2.67;;
43986;SDS011;29650;47.378;8.300;2023-05-19T14:58:00;4.22;;;2.83;;
43986;SDS011;29650;47.378;8.300;2023-05-19T15:00:27;9.68;;;2.85;;
43986;SDS011;29650;47.378;8.300;2023-05-19T15:02:54;9.68;;;3.35;;
43986;SDS011;29650;47.378;8.300;2023-05-19T15:05:21;4.85;;;2.83;;
43986;SDS011;29650;47.378;8.300;2023-05-19T15:07:50;5.68;;;3.13;;
43986;SDS011;29650;47.378;8.300;2023-05-19T15:10:17;8.10;;;2.58;;
43986;SDS011;29650;47.378;8.300;2023-05-19T15:12:45;5.20;;;2.75;;
43986;SDS011;29650;47.378;8.300;2023-05-19T15:15:12;5.25;;;2.78;;
43986;SDS011;29650;47.378;8.300;2023-05-19T15:17:39;4.50;;;2.92;;
43986;SDS011;29650;47.378;8.300;2023-05-19T15:20:06;3.58;;;2.33;;
43986;SDS011;29650;47.378;8.300;2023-05-19T15:22:34;5.68;;;2.53;;
43986;SDS011;29650;47.378;8.300;2023-05-19T15:25:02;2.90;;;1.90;;
43986;SDS011;29650;47.378;8.300;2023-05-19T15:27:29;6.53;;;2.65;;
43986;SDS011;29650;47.378;8.300;2023-05-19T15:29:56;3.50;;;2.45;;
43986;SDS011;29650;47.378;8.300;2023-05-19T15:32:23;4.63;;;2.38;;